White Oak, Ohio
Current Conditions -  °F | °C
As of 9:35 AM on Tuesday 27 Jan 2015 (Local Time) from KI67 Reporting Station
Clear Clear  
Wind Chill: 13°   Ceiling: Unl
Heat Index: 21°   Visibility: 10mi
Dew Point: 16°   Wind: 7mph
Humidity: 80%   Direction: 70°ENE
Pressure: 30.07"   Gusts: NA
Location:  39.2201°N, 84.6531°W
Report Text: KI67 271435Z AUTO 07006KT 10SM CLR M06/M09 A3007 RMK AO1
Loading
Personal Weather Stations






























Interactive Weather Map New forecast layout! Learn more

10-Day Weather Forecast

Advertisements
Track Severe Weather on mobile